sensor_id;sensor_type;location;lat;lon;timestamp;temperature;humidity
71088;SHT31;58747;50.674;4.616;2023-01-19T00:00:34;0.65;89.80
71088;SHT31;58747;50.674;4.616;2023-01-19T00:02:59;0.67;89.55
71088;SHT31;58747;50.674;4.616;2023-01-19T00:05:24;0.64;89.53
71088;SHT31;58747;50.674;4.616;2023-01-19T00:07:49;0.67;89.51
71088;SHT31;58747;50.674;4.616;2023-01-19T00:10:15;0.68;89.44
71088;SHT31;58747;50.674;4.616;2023-01-19T00:12:40;0.65;89.41
71088;SHT31;58747;50.674;4.616;2023-01-19T00:15:06;0.61;89.48
71088;SHT31;58747;50.674;4.616;2023-01-19T00:17:32;0.64;89.51
71088;SHT31;58747;50.674;4.616;2023-01-19T00:19:57;0.61;89.52
71088;SHT31;58747;50.674;4.616;2023-01-19T00:22:22;0.54;89.63
71088;SHT31;58747;50.674;4.616;2023-01-19T00:24:48;0.54;89.54
71088;SHT31;58747;50.674;4.616;2023-01-19T00:27:14;0.54;89.47
71088;SHT31;58747;50.674;4.616;2023-01-19T00:29:39;0.56;89.43
71088;SHT31;58747;50.674;4.616;2023-01-19T00:32:05;0.51;89.43
71088;SHT31;58747;50.674;4.616;2023-01-19T00:34:30;0.54;89.63
71088;SHT31;58747;50.674;4.616;2023-01-19T00:37:07;0.39;89.85
71088;SHT31;58747;50.674;4.616;2023-01-19T00:39:32;0.37;89.93
71088;SHT31;58747;50.674;4.616;2023-01-19T00:41:58;0.40;89.87
71088;SHT31;58747;50.674;4.616;2023-01-19T00:44:43;0.39;90.05
71088;SHT31;58747;50.674;4.616;2023-01-19T00:47:09;0.41;89.95
71088;SHT31;58747;50.674;4.616;2023-01-19T00:49:34;0.49;89.99
71088;SHT31;58747;50.674;4.616;2023-01-19T00:51:59;0.51;90.07
71088;SHT31;58747;50.674;4.616;2023-01-19T00:54:25;0.51;90.07
71088;SHT31;58747;50.674;4.616;2023-01-19T00:56:50;0.57;90.01
71088;SHT31;58747;50.674;4.616;2023-01-19T00:59:15;0.64;89.90
71088;SHT31;58747;50.674;4.616;2023-01-19T01:01:41;0.65;89.76
71088;SHT31;58747;50.674;4.616;2023-01-19T01:04:06;0.67;89.74
71088;SHT31;58747;50.674;4.616;2023-01-19T01:06:31;0.68;89.69
71088;SHT31;58747;50.674;4.616;2023-01-19T01:08:57;0.65;89.79
71088;SHT31;58747;50.674;4.616;2023-01-19T01:11:22;0.78;89.68
71088;SHT31;58747;50.674;4.616;2023-01-19T01:13:47;0.82;89.54
71088;SHT31;58747;50.674;4.616;2023-01-19T01:16:14;0.82;89.44
71088;SHT31;58747;50.674;4.616;2023-01-19T01:18:40;0.88;89.30
71088;SHT31;58747;50.674;4.616;2023-01-19T01:21:06;0.84;89.40
71088;SHT31;58747;50.674;4.616;2023-01-19T01:23:33;0.88;89.21
71088;SHT31;58747;50.674;4.616;2023-01-19T01:25:59;0.89;89.22
71088;SHT31;58747;50.674;4.616;2023-01-19T01:28:24;0.91;89.10
71088;SHT31;58747;50.674;4.616;2023-01-19T01:30:56;0.93;89.03
71088;SHT31;58747;50.674;4.616;2023-01-19T01:33:22;0.84;88.99
71088;SHT31;58747;50.674;4.616;2023-01-19T01:35:48;0.75;89.09
71088;SHT31;58747;50.674;4.616;2023-01-19T01:38:14;0.72;89.17
71088;SHT31;58747;50.674;4.616;2023-01-19T01:40:41;0.70;89.23
71088;SHT31;58747;50.674;4.616;2023-01-19T01:43:18;0.65;89.52
71088;SHT31;58747;50.674;4.616;2023-01-19T01:45:44;0.62;89.41
71088;SHT31;58747;50.674;4.616;2023-01-19T01:48:23;0.56;89.63
71088;SHT31;58747;50.674;4.616;2023-01-19T01:53:42;0.53;89.77
71088;SHT31;58747;50.674;4.616;2023-01-19T01:56:13;0.51;89.78
71088;SHT31;58747;50.674;4.616;2023-01-19T01:58:39;0.54;89.66
71088;SHT31;58747;50.674;4.616;2023-01-19T02:01:06;0.56;89.53
71088;SHT31;58747;50.674;4.616;2023-01-19T02:03:51;0.44;89.57
71088;SHT31;58747;50.674;4.616;2023-01-19T02:06:16;0.47;89.72
71088;SHT31;58747;50.674;4.616;2023-01-19T02:09:00;0.40;89.95
71088;SHT31;58747;50.674;4.616;2023-01-19T02:11:45;0.43;89.93
71088;SHT31;58747;50.674;4.616;2023-01-19T02:14:29;0.34;90.22
71088;SHT31;58747;50.674;4.616;2023-01-19T02:16:55;0.31;90.40
71088;SHT31;58747;50.674;4.616;2023-01-19T02:19:32;0.33;90.28
71088;SHT31;58747;50.674;4.616;2023-01-19T02:22:03;0.36;90.02
71088;SHT31;58747;50.674;4.616;2023-01-19T02:24:31;0.31;90.16
71088;SHT31;58747;50.674;4.616;2023-01-19T02:26:57;0.29;90.15
71088;SHT31;58747;50.674;4.616;2023-01-19T02:29:25;0.26;90.31
71088;SHT31;58747;50.674;4.616;2023-01-19T02:31:52;0.33;90.17
71088;SHT31;58747;50.674;4.616;2023-01-19T02:34:20;0.31;90.05
71088;SHT31;58747;50.674;4.616;2023-01-19T02:36:59;0.34;89.99
71088;SHT31;58747;50.674;4.616;2023-01-19T02:39:50;0.26;90.09
71088;SHT31;58747;50.674;4.616;2023-01-19T02:42:21;0.20;90.19
71088;SHT31;58747;50.674;4.616;2023-01-19T02:44:48;0.23;90.03
71088;SHT31;58747;50.674;4.616;2023-01-19T02:47:15;0.27;89.95
71088;SHT31;58747;50.674;4.616;2023-01-19T02:49:40;0.23;90.02
71088;SHT31;58747;50.674;4.616;2023-01-19T02:52:07;0.24;90.00
71088;SHT31;58747;50.674;4.616;2023-01-19T03:03:55;0.14;90.07
71088;SHT31;58747;50.674;4.616;2023-01-19T03:09:34;0.16;90.33
71088;SHT31;58747;50.674;4.616;2023-01-19T03:12:10;0.19;90.17
71088;SHT31;58747;50.674;4.616;2023-01-19T03:14:41;0.09;90.20
71088;SHT31;58747;50.674;4.616;2023-01-19T03:17:10;0.05;90.26
71088;SHT31;58747;50.674;4.616;2023-01-19T03:19:39;0.09;90.37
71088;SHT31;58747;50.674;4.616;2023-01-19T03:22:09;0.05;90.42
71088;SHT31;58747;50.674;4.616;2023-01-19T03:24:39;0.03;90.35
71088;SHT31;58747;50.674;4.616;2023-01-19T03:27:12;0.03;90.47
71088;SHT31;58747;50.674;4.616;2023-01-19T03:29:41;0.00;90.77
71088;SHT31;58747;50.674;4.616;2023-01-19T03:32:14;-0.04;90.49
71088;SHT31;58747;50.674;4.616;2023-01-19T03:34:41;0.05;90.54
71088;SHT31;58747;50.674;4.616;2023-01-19T03:37:09;0.09;90.56
71088;SHT31;58747;50.674;4.616;2023-01-19T03:39:35;0.14;90.41
71088;SHT31;58747;50.674;4.616;2023-01-19T03:42:04;0.14;90.13
71088;SHT31;58747;50.674;4.616;2023-01-19T03:44:32;0.14;90.06
71088;SHT31;58747;50.674;4.616;2023-01-19T03:46:58;0.06;90.17
71088;SHT31;58747;50.674;4.616;2023-01-19T03:49:24;0.13;90.15
71088;SHT31;58747;50.674;4.616;2023-01-19T03:51:54;0.14;90.07
71088;SHT31;58747;50.674;4.616;2023-01-19T03:54:20;0.10;89.99
71088;SHT31;58747;50.674;4.616;2023-01-19T03:56:45;0.03;90.14
71088;SHT31;58747;50.674;4.616;2023-01-19T03:59:10;0.09;90.25
71088;SHT31;58747;50.674;4.616;2023-01-19T04:01:35;0.16;90.46
71088;SHT31;58747;50.674;4.616;2023-01-19T04:04:01;0.19;90.38
71088;SHT31;58747;50.674;4.616;2023-01-19T04:06:26;0.24;90.23
71088;SHT31;58747;50.674;4.616;2023-01-19T04:08:52;0.26;90.36
71088;SHT31;58747;50.674;4.616;2023-01-19T04:11:18;0.23;90.35
71088;SHT31;58747;50.674;4.616;2023-01-19T04:13:43;0.34;90.07
71088;SHT31;58747;50.674;4.616;2023-01-19T04:16:10;0.34;90.15
71088;SHT31;58747;50.674;4.616;2023-01-19T04:18:35;0.39;89.97
71088;SHT31;58747;50.674;4.616;2023-01-19T04:21:03;0.46;89.67
71088;SHT31;58747;50.674;4.616;2023-01-19T04:23:28;0.44;89.58
71088;SHT31;58747;50.674;4.616;2023-01-19T04:25:58;0.46;89.83
71088;SHT31;58747;50.674;4.616;2023-01-19T04:28:24;0.57;89.32
71088;SHT31;58747;50.674;4.616;2023-01-19T04:30:50;0.65;88.96
71088;SHT31;58747;50.674;4.616;2023-01-19T04:33:17;0.64;89.06
71088;SHT31;58747;50.674;4.616;2023-01-19T04:35:43;0.61;89.02
71088;SHT31;58747;50.674;4.616;2023-01-19T04:38:09;0.65;89.11
71088;SHT31;58747;50.674;4.616;2023-01-19T04:40:34;0.58;89.13
71088;SHT31;58747;50.674;4.616;2023-01-19T04:42:59;0.64;89.20
71088;SHT31;58747;50.674;4.616;2023-01-19T04:45:25;0.64;89.00
71088;SHT31;58747;50.674;4.616;2023-01-19T04:47:50;0.67;89.13
71088;SHT31;58747;50.674;4.616;2023-01-19T04:50:16;0.68;89.03
71088;SHT31;58747;50.674;4.616;2023-01-19T04:52:41;0.74;88.91
71088;SHT31;58747;50.674;4.616;2023-01-19T04:55:07;0.74;88.87
71088;SHT31;58747;50.674;4.616;2023-01-19T04:57:33;0.78;88.81
71088;SHT31;58747;50.674;4.616;2023-01-19T04:59:58;0.88;88.65
71088;SHT31;58747;50.674;4.616;2023-01-19T05:02:24;0.91;88.50
71088;SHT31;58747;50.674;4.616;2023-01-19T05:04:49;0.85;88.51
71088;SHT31;58747;50.674;4.616;2023-01-19T05:07:15;0.91;88.44
71088;SHT31;58747;50.674;4.616;2023-01-19T05:09:40;0.93;88.37
71088;SHT31;58747;50.674;4.616;2023-01-19T05:12:06;0.92;88.49
71088;SHT31;58747;50.674;4.616;2023-01-19T05:14:31;0.93;88.36
71088;SHT31;58747;50.674;4.616;2023-01-19T05:16:56;0.95;88.44
71088;SHT31;58747;50.674;4.616;2023-01-19T05:19:22;0.96;88.58
71088;SHT31;58747;50.674;4.616;2023-01-19T05:21:47;0.98;88.50
71088;SHT31;58747;50.674;4.616;2023-01-19T05:24:13;1.00;88.41
71088;SHT31;58747;50.674;4.616;2023-01-19T05:26:39;0.93;88.67
71088;SHT31;58747;50.674;4.616;2023-01-19T05:29:04;0.98;88.65
71088;SHT31;58747;50.674;4.616;2023-01-19T05:31:30;0.96;88.63
71088;SHT31;58747;50.674;4.616;2023-01-19T05:33:55;0.98;88.85
71088;SHT31;58747;50.674;4.616;2023-01-19T05:36:20;1.02;88.86
71088;SHT31;58747;50.674;4.616;2023-01-19T05:38:46;1.09;88.52
71088;SHT31;58747;50.674;4.616;2023-01-19T05:41:11;1.06;88.57
71088;SHT31;58747;50.674;4.616;2023-01-19T05:43:36;1.00;88.76
71088;SHT31;58747;50.674;4.616;2023-01-19T05:46:03;1.03;88.74
71088;SHT31;58747;50.674;4.616;2023-01-19T05:48:29;1.05;88.84
71088;SHT31;58747;50.674;4.616;2023-01-19T05:50:58;1.09;88.68
71088;SHT31;58747;50.674;4.616;2023-01-19T05:53:24;1.10;88.49
71088;SHT31;58747;50.674;4.616;2023-01-19T05:55:49;1.12;88.66
71088;SHT31;58747;50.674;4.616;2023-01-19T05:58:15;1.09;88.83
71088;SHT31;58747;50.674;4.616;2023-01-19T06:00:41;1.12;88.69
71088;SHT31;58747;50.674;4.616;2023-01-19T06:03:06;1.15;88.49
71088;SHT31;58747;50.674;4.616;2023-01-19T06:05:32;1.10;88.68
71088;SHT31;58747;50.674;4.616;2023-01-19T06:07:58;1.06;88.77
71088;SHT31;58747;50.674;4.616;2023-01-19T06:10:23;1.18;88.41
71088;SHT31;58747;50.674;4.616;2023-01-19T06:12:49;1.19;88.39
71088;SHT31;58747;50.674;4.616;2023-01-19T06:15:15;1.15;88.41
71088;SHT31;58747;50.674;4.616;2023-01-19T06:17:41;1.16;88.40
71088;SHT31;58747;50.674;4.616;2023-01-19T06:20:07;1.09;88.49
71088;SHT31;58747;50.674;4.616;2023-01-19T06:22:33;1.15;88.46
71088;SHT31;58747;50.674;4.616;2023-01-19T06:24:58;1.08;88.76
71088;SHT31;58747;50.674;4.616;2023-01-19T06:27:24;1.06;88.67
71088;SHT31;58747;50.674;4.616;2023-01-19T06:29:49;1.05;88.78
71088;SHT31;58747;50.674;4.616;2023-01-19T06:32:15;1.06;88.77
71088;SHT31;58747;50.674;4.616;2023-01-19T06:34:41;1.00;88.63
71088;SHT31;58747;50.674;4.616;2023-01-19T06:37:10;0.92;89.02
71088;SHT31;58747;50.674;4.616;2023-01-19T06:39:36;0.93;88.99
71088;SHT31;58747;50.674;4.616;2023-01-19T06:42:05;0.99;88.98
71088;SHT31;58747;50.674;4.616;2023-01-19T06:44:30;1.00;89.03
71088;SHT31;58747;50.674;4.616;2023-01-19T06:46:56;1.09;88.57
71088;SHT31;58747;50.674;4.616;2023-01-19T06:49:21;1.05;88.98
71088;SHT31;58747;50.674;4.616;2023-01-19T06:51:46;1.09;88.99
71088;SHT31;58747;50.674;4.616;2023-01-19T06:54:12;1.09;88.73
71088;SHT31;58747;50.674;4.616;2023-01-19T06:56:37;1.13;88.87
71088;SHT31;58747;50.674;4.616;2023-01-19T06:59:02;1.12;88.73
71088;SHT31;58747;50.674;4.616;2023-01-19T07:01:28;1.13;88.74
71088;SHT31;58747;50.674;4.616;2023-01-19T07:03:53;1.19;88.62
71088;SHT31;58747;50.674;4.616;2023-01-19T07:06:18;1.25;88.56
71088;SHT31;58747;50.674;4.616;2023-01-19T07:08:44;1.54;89.71
71088;SHT31;58747;50.674;4.616;2023-01-19T07:11:11;1.77;88.86
71088;SHT31;58747;50.674;4.616;2023-01-19T07:13:38;1.78;87.30
71088;SHT31;58747;50.674;4.616;2023-01-19T07:16:08;1.66;87.16
71088;SHT31;58747;50.674;4.616;2023-01-19T07:18:35;1.54;87.48
71088;SHT31;58747;50.674;4.616;2023-01-19T07:21:01;1.40;87.94
71088;SHT31;58747;50.674;4.616;2023-01-19T07:23:26;1.53;88.17
71088;SHT31;58747;50.674;4.616;2023-01-19T07:25:57;1.53;87.77
71088;SHT31;58747;50.674;4.616;2023-01-19T07:28:23;1.44;87.63
71088;SHT31;58747;50.674;4.616;2023-01-19T07:30:55;1.40;87.90
71088;SHT31;58747;50.674;4.616;2023-01-19T07:33:22;1.42;87.78
71088;SHT31;58747;50.674;4.616;2023-01-19T07:35:49;1.36;88.15
71088;SHT31;58747;50.674;4.616;2023-01-19T07:38:16;1.53;88.83
71088;SHT31;58747;50.674;4.616;2023-01-19T07:40:42;1.49;88.20
71088;SHT31;58747;50.674;4.616;2023-01-19T07:43:07;1.42;88.05
71088;SHT31;58747;50.674;4.616;2023-01-19T07:45:34;1.47;87.75
71088;SHT31;58747;50.674;4.616;2023-01-19T07:47:59;1.50;87.72
71088;SHT31;58747;50.674;4.616;2023-01-19T07:50:25;1.49;87.92
71088;SHT31;58747;50.674;4.616;2023-01-19T07:52:51;1.46;88.05
71088;SHT31;58747;50.674;4.616;2023-01-19T07:55:18;1.49;87.95
71088;SHT31;58747;50.674;4.616;2023-01-19T07:57:46;1.50;87.84
71088;SHT31;58747;50.674;4.616;2023-01-19T08:00:13;1.42;88.01
71088;SHT31;58747;50.674;4.616;2023-01-19T08:02:38;1.36;88.42
71088;SHT31;58747;50.674;4.616;2023-01-19T08:05:05;1.35;88.32
71088;SHT31;58747;50.674;4.616;2023-01-19T08:07:32;1.39;88.48
71088;SHT31;58747;50.674;4.616;2023-01-19T08:09:57;1.46;88.23
71088;SHT31;58747;50.674;4.616;2023-01-19T08:12:23;1.46;87.97
71088;SHT31;58747;50.674;4.616;2023-01-19T08:14:48;1.44;88.09
71088;SHT31;58747;50.674;4.616;2023-01-19T08:17:13;1.47;88.10
71088;SHT31;58747;50.674;4.616;2023-01-19T08:19:39;1.46;88.03
71088;SHT31;58747;50.674;4.616;2023-01-19T08:22:05;1.47;88.11
71088;SHT31;58747;50.674;4.616;2023-01-19T08:24:31;1.43;88.17
71088;SHT31;58747;50.674;4.616;2023-01-19T08:26:58;1.51;88.10
71088;SHT31;58747;50.674;4.616;2023-01-19T08:29:23;1.53;87.86
71088;SHT31;58747;50.674;4.616;2023-01-19T08:31:49;1.50;88.06
71088;SHT31;58747;50.674;4.616;2023-01-19T08:34:14;1.47;87.98
71088;SHT31;58747;50.674;4.616;2023-01-19T08:36:39;1.56;87.95
71088;SHT31;58747;50.674;4.616;2023-01-19T08:39:05;1.60;87.91
71088;SHT31;58747;50.674;4.616;2023-01-19T08:41:30;1.63;87.95
71088;SHT31;58747;50.674;4.616;2023-01-19T08:43:56;1.58;87.88
71088;SHT31;58747;50.674;4.616;2023-01-19T08:46:21;1.60;87.95
71088;SHT31;58747;50.674;4.616;2023-01-19T08:48:47;1.61;87.88
71088;SHT31;58747;50.674;4.616;2023-01-19T08:51:13;1.75;88.44
71088;SHT31;58747;50.674;4.616;2023-01-19T08:53:40;1.67;87.79
71088;SHT31;58747;50.674;4.616;2023-01-19T08:56:06;1.75;87.49
71088;SHT31;58747;50.674;4.616;2023-01-19T08:58:36;1.61;87.68
71088;SHT31;58747;50.674;4.616;2023-01-19T09:01:02;1.66;87.69
71088;SHT31;58747;50.674;4.616;2023-01-19T09:03:27;1.66;87.72
71088;SHT31;58747;50.674;4.616;2023-01-19T09:05:52;1.71;87.65
71088;SHT31;58747;50.674;4.616;2023-01-19T09:08:18;1.70;87.68
71088;SHT31;58747;50.674;4.616;2023-01-19T09:10:47;1.67;87.55
71088;SHT31;58747;50.674;4.616;2023-01-19T09:13:13;1.66;87.73
71088;SHT31;58747;50.674;4.616;2023-01-19T09:15:40;1.68;87.47
71088;SHT31;58747;50.674;4.616;2023-01-19T09:18:14;1.73;87.34
71088;SHT31;58747;50.674;4.616;2023-01-19T09:20:41;1.73;87.53
71088;SHT31;58747;50.674;4.616;2023-01-19T09:23:11;1.75;87.45
71088;SHT31;58747;50.674;4.616;2023-01-19T09:25:37;1.75;87.58
71088;SHT31;58747;50.674;4.616;2023-01-19T09:28:05;1.79;87.25
71088;SHT31;58747;50.674;4.616;2023-01-19T09:30:31;1.84;87.25
71088;SHT31;58747;50.674;4.616;2023-01-19T09:33:02;1.84;87.28
71088;SHT31;58747;50.674;4.616;2023-01-19T09:35:31;1.85;87.35
71088;SHT31;58747;50.674;4.616;2023-01-19T09:37:56;1.84;86.92
71088;SHT31;58747;50.674;4.616;2023-01-19T09:40:23;1.87;86.92
71088;SHT31;58747;50.674;4.616;2023-01-19T09:42:56;1.88;86.63
71088;SHT31;58747;50.674;4.616;2023-01-19T09:45:33;1.85;86.97
71088;SHT31;58747;50.674;4.616;2023-01-19T09:48:02;1.87;86.89
71088;SHT31;58747;50.674;4.616;2023-01-19T09:50:33;1.81;87.06
71088;SHT31;58747;50.674;4.616;2023-01-19T09:53:16;1.87;86.79
71088;SHT31;58747;50.674;4.616;2023-01-19T09:55:44;1.78;86.95
71088;SHT31;58747;50.674;4.616;2023-01-19T09:58:12;1.88;86.68
71088;SHT31;58747;50.674;4.616;2023-01-19T10:00:42;1.81;86.86
71088;SHT31;58747;50.674;4.616;2023-01-19T10:03:14;1.84;86.90
71088;SHT31;58747;50.674;4.616;2023-01-19T10:05:44;1.79;86.59
71088;SHT31;58747;50.674;4.616;2023-01-19T10:08:25;1.77;86.65
71088;SHT31;58747;50.674;4.616;2023-01-19T10:10:56;1.81;86.78
71088;SHT31;58747;50.674;4.616;2023-01-19T10:13:34;1.85;87.02
71088;SHT31;58747;50.674;4.616;2023-01-19T10:19:01;1.91;85.90
71088;SHT31;58747;50.674;4.616;2023-01-19T10:21:41;1.87;86.59
71088;SHT31;58747;50.674;4.616;2023-01-19T10:24:18;1.93;86.19
71088;SHT31;58747;50.674;4.616;2023-01-19T10:26:49;1.97;85.94
71088;SHT31;58747;50.674;4.616;2023-01-19T10:32:02;1.97;86.45
71088;SHT31;58747;50.674;4.616;2023-01-19T10:34:28;2.02;86.15
71088;SHT31;58747;50.674;4.616;2023-01-19T10:37:01;2.07;85.96
71088;SHT31;58747;50.674;4.616;2023-01-19T10:39:28;1.99;86.39
71088;SHT31;58747;50.674;4.616;2023-01-19T10:41:53;1.98;86.47
71088;SHT31;58747;50.674;4.616;2023-01-19T10:44:27;2.01;86.24
71088;SHT31;58747;50.674;4.616;2023-01-19T10:46:54;2.11;86.14
71088;SHT31;58747;50.674;4.616;2023-01-19T10:51:49;2.32;85.14
71088;SHT31;58747;50.674;4.616;2023-01-19T10:54:15;2.25;85.46
71088;SHT31;58747;50.674;4.616;2023-01-19T10:56:40;2.28;85.59
71088;SHT31;58747;50.674;4.616;2023-01-19T11:04:35;2.26;86.18
71088;SHT31;58747;50.674;4.616;2023-01-19T11:09:46;2.42;85.92
71088;SHT31;58747;50.674;4.616;2023-01-19T11:12:30;2.37;85.74
71088;SHT31;58747;50.674;4.616;2023-01-19T11:14:56;2.50;85.61
71088;SHT31;58747;50.674;4.616;2023-01-19T11:17:25;2.54;85.77
71088;SHT31;58747;50.674;4.616;2023-01-19T11:19:56;2.66;85.29
71088;SHT31;58747;50.674;4.616;2023-01-19T11:22:26;2.84;84.58
71088;SHT31;58747;50.674;4.616;2023-01-19T11:24:56;2.84;85.03
71088;SHT31;58747;50.674;4.616;2023-01-19T11:27:22;3.05;84.24
71088;SHT31;58747;50.674;4.616;2023-01-19T11:29:52;3.19;84.07
71088;SHT31;58747;50.674;4.616;2023-01-19T11:32:22;3.04;83.84
71088;SHT31;58747;50.674;4.616;2023-01-19T11:34:48;2.97;84.40
71088;SHT31;58747;50.674;4.616;2023-01-19T11:39:50;4.31;81.13
71088;SHT31;58747;50.674;4.616;2023-01-19T11:42:17;6.47;76.75
71088;SHT31;58747;50.674;4.616;2023-01-19T11:47:46;7.74;71.50
71088;SHT31;58747;50.674;4.616;2023-01-19T11:50:32;7.20;71.08
71088;SHT31;58747;50.674;4.616;2023-01-19T11:53:05;7.75;69.30
71088;SHT31;58747;50.674;4.616;2023-01-19T11:55:54;8.45;67.06
71088;SHT31;58747;50.674;4.616;2023-01-19T11:58:21;7.34;70.21
71088;SHT31;58747;50.674;4.616;2023-01-19T12:00:55;8.66;67.00
71088;SHT31;58747;50.674;4.616;2023-01-19T12:03:26;9.07;63.29
71088;SHT31;58747;50.674;4.616;2023-01-19T12:06:08;7.85;68.32
71088;SHT31;58747;50.674;4.616;2023-01-19T12:08:47;7.12;69.26
71088;SHT31;58747;50.674;4.616;2023-01-19T12:11:21;7.33;69.67
71088;SHT31;58747;50.674;4.616;2023-01-19T12:13:51;6.50;71.12
71088;SHT31;58747;50.674;4.616;2023-01-19T12:16:20;5.98;73.25
71088;SHT31;58747;50.674;4.616;2023-01-19T12:18:55;5.03;76.03
71088;SHT31;58747;50.674;4.616;2023-01-19T12:21:22;4.76;76.80
71088;SHT31;58747;50.674;4.616;2023-01-19T12:24:17;4.46;77.52
71088;SHT31;58747;50.674;4.616;2023-01-19T12:26:58;4.42;77.89
71088;SHT31;58747;50.674;4.616;2023-01-19T12:29:27;4.38;78.25
71088;SHT31;58747;50.674;4.616;2023-01-19T12:39:53;4.22;79.11
71088;SHT31;58747;50.674;4.616;2023-01-19T12:42:19;4.10;79.29
71088;SHT31;58747;50.674;4.616;2023-01-19T12:44:45;4.14;79.26
71088;SHT31;58747;50.674;4.616;2023-01-19T12:49:54;4.01;80.22
71088;SHT31;58747;50.674;4.616;2023-01-19T12:55:21;3.93;79.51
71088;SHT31;58747;50.674;4.616;2023-01-19T12:58:11;4.20;80.14
71088;SHT31;58747;50.674;4.616;2023-01-19T13:00:40;4.13;78.77
71088;SHT31;58747;50.674;4.616;2023-01-19T13:19:00;4.14;79.86
71088;SHT31;58747;50.674;4.616;2023-01-19T13:21:41;4.13;79.01
71088;SHT31;58747;50.674;4.616;2023-01-19T13:24:15;4.11;79.69
71088;SHT31;58747;50.674;4.616;2023-01-19T13:26:52;4.07;79.91
71088;SHT31;58747;50.674;4.616;2023-01-19T13:29:34;4.40;79.88
71088;SHT31;58747;50.674;4.616;2023-01-19T13:32:10;4.30;79.21
71088;SHT31;58747;50.674;4.616;2023-01-19T13:34:56;4.48;79.13
71088;SHT31;58747;50.674;4.616;2023-01-19T13:37:30;4.44;78.23
71088;SHT31;58747;50.674;4.616;2023-01-19T13:39:58;4.59;78.66
71088;SHT31;58747;50.674;4.616;2023-01-19T13:42:36;4.63;78.84
71088;SHT31;58747;50.674;4.616;2023-01-19T13:45:26;4.41;78.62
71088;SHT31;58747;50.674;4.616;2023-01-19T13:47:53;4.38;78.52
71088;SHT31;58747;50.674;4.616;2023-01-19T13:50:21;4.34;78.41
71088;SHT31;58747;50.674;4.616;2023-01-19T13:52:47;4.21;78.79
71088;SHT31;58747;50.674;4.616;2023-01-19T13:55:18;4.15;79.02
71088;SHT31;58747;50.674;4.616;2023-01-19T13:57:46;4.07;79.17
71088;SHT31;58747;50.674;4.616;2023-01-19T14:00:17;3.91;80.47
71088;SHT31;58747;50.674;4.616;2023-01-19T14:03:15;3.87;80.24
71088;SHT31;58747;50.674;4.616;2023-01-19T14:05:43;4.25;79.89
71088;SHT31;58747;50.674;4.616;2023-01-19T14:13:30;4.11;80.31
71088;SHT31;58747;50.674;4.616;2023-01-19T14:15:58;4.00;80.32
71088;SHT31;58747;50.674;4.616;2023-01-19T14:18:30;4.01;80.05
71088;SHT31;58747;50.674;4.616;2023-01-19T14:29:16;3.97;80.76
71088;SHT31;58747;50.674;4.616;2023-01-19T14:32:24;3.91;81.35
71088;SHT31;58747;50.674;4.616;2023-01-19T14:39:49;3.90;81.29
71088;SHT31;58747;50.674;4.616;2023-01-19T14:42:19;3.98;80.85
71088;SHT31;58747;50.674;4.616;2023-01-19T14:44:49;3.97;81.02
71088;SHT31;58747;50.674;4.616;2023-01-19T14:47:26;3.86;80.87
71088;SHT31;58747;50.674;4.616;2023-01-19T14:49:55;3.82;81.73
71088;SHT31;58747;50.674;4.616;2023-01-19T14:52:32;3.80;81.56
71088;SHT31;58747;50.674;4.616;2023-01-19T14:54:59;3.82;81.47
71088;SHT31;58747;50.674;4.616;2023-01-19T14:57:26;3.76;81.72
71088;SHT31;58747;50.674;4.616;2023-01-19T14:59:52;3.76;81.55
71088;SHT31;58747;50.674;4.616;2023-01-19T15:02:17;3.73;81.95
71088;SHT31;58747;50.674;4.616;2023-01-19T15:04:44;3.76;82.10
71088;SHT31;58747;50.674;4.616;2023-01-19T15:07:16;3.74;82.02
71088;SHT31;58747;50.674;4.616;2023-01-19T15:09:43;3.73;82.18
71088;SHT31;58747;50.674;4.616;2023-01-19T15:12:10;3.70;82.18
71088;SHT31;58747;50.674;4.616;2023-01-19T15:14:37;3.65;82.65
71088;SHT31;58747;50.674;4.616;2023-01-19T15:17:02;3.63;82.77
71088;SHT31;58747;50.674;4.616;2023-01-19T15:19:28;3.62;82.53
71088;SHT31;58747;50.674;4.616;2023-01-19T15:21:53;3.63;82.42
71088;SHT31;58747;50.674;4.616;2023-01-19T15:24:18;3.53;82.45
71088;SHT31;58747;50.674;4.616;2023-01-19T15:26:44;3.49;82.61
71088;SHT31;58747;50.674;4.616;2023-01-19T15:29:27;3.74;84.89
71088;SHT31;58747;50.674;4.616;2023-01-19T15:31:53;3.86;81.85
71088;SHT31;58747;50.674;4.616;2023-01-19T15:34:18;3.82;82.28
71088;SHT31;58747;50.674;4.616;2023-01-19T15:36:43;3.76;82.14
71088;SHT31;58747;50.674;4.616;2023-01-19T15:39:09;3.62;82.83
71088;SHT31;58747;50.674;4.616;2023-01-19T15:41:36;3.66;82.20
71088;SHT31;58747;50.674;4.616;2023-01-19T15:44:02;3.56;82.62
71088;SHT31;58747;50.674;4.616;2023-01-19T15:46:29;3.59;82.39
71088;SHT31;58747;50.674;4.616;2023-01-19T15:48:55;3.52;82.56
71088;SHT31;58747;50.674;4.616;2023-01-19T15:51:22;3.58;83.06
71088;SHT31;58747;50.674;4.616;2023-01-19T15:53:50;3.53;82.75
71088;SHT31;58747;50.674;4.616;2023-01-19T15:56:21;3.46;82.89
71088;SHT31;58747;50.674;4.616;2023-01-19T15:58:47;3.36;83.50
71088;SHT31;58747;50.674;4.616;2023-01-19T16:01:19;3.35;83.28
71088;SHT31;58747;50.674;4.616;2023-01-19T16:03:46;3.63;84.86
71088;SHT31;58747;50.674;4.616;2023-01-19T16:06:12;3.90;82.57
71088;SHT31;58747;50.674;4.616;2023-01-19T16:08:38;3.79;82.26
71088;SHT31;58747;50.674;4.616;2023-01-19T16:11:05;3.70;82.29
71088;SHT31;58747;50.674;4.616;2023-01-19T16:13:31;3.63;82.61
71088;SHT31;58747;50.674;4.616;2023-01-19T16:16:03;3.51;82.74
71088;SHT31;58747;50.674;4.616;2023-01-19T16:18:29;3.42;83.23
71088;SHT31;58747;50.674;4.616;2023-01-19T16:20:54;3.26;83.46
71088;SHT31;58747;50.674;4.616;2023-01-19T16:23:20;3.24;83.25
71088;SHT31;58747;50.674;4.616;2023-01-19T16:25:57;3.09;83.56
71088;SHT31;58747;50.674;4.616;2023-01-19T16:28:24;3.07;83.27
71088;SHT31;58747;50.674;4.616;2023-01-19T16:30:49;2.98;83.66
71088;SHT31;58747;50.674;4.616;2023-01-19T16:33:15;2.97;84.08
71088;SHT31;58747;50.674;4.616;2023-01-19T16:35:41;2.97;84.06
71088;SHT31;58747;50.674;4.616;2023-01-19T16:38:06;2.98;83.88
71088;SHT31;58747;50.674;4.616;2023-01-19T16:40:33;2.91;84.10
71088;SHT31;58747;50.674;4.616;2023-01-19T16:42:59;2.95;84.27
71088;SHT31;58747;50.674;4.616;2023-01-19T16:45:24;2.93;84.51
71088;SHT31;58747;50.674;4.616;2023-01-19T16:47:49;2.90;84.46
71088;SHT31;58747;50.674;4.616;2023-01-19T16:50:16;2.81;84.64
71088;SHT31;58747;50.674;4.616;2023-01-19T16:52:42;2.68;84.69
71088;SHT31;58747;50.674;4.616;2023-01-19T16:55:08;2.64;85.06
71088;SHT31;58747;50.674;4.616;2023-01-19T16:57:36;2.53;85.29
71088;SHT31;58747;50.674;4.616;2023-01-19T17:00:04;2.42;85.34
71088;SHT31;58747;50.674;4.616;2023-01-19T17:02:29;2.35;85.21
71088;SHT31;58747;50.674;4.616;2023-01-19T17:04:55;2.68;87.36
71088;SHT31;58747;50.674;4.616;2023-01-19T17:07:20;2.53;84.85
71088;SHT31;58747;50.674;4.616;2023-01-19T17:09:45;2.45;84.74
71088;SHT31;58747;50.674;4.616;2023-01-19T17:12:11;2.36;84.79
71088;SHT31;58747;50.674;4.616;2023-01-19T17:14:37;2.29;84.79
71088;SHT31;58747;50.674;4.616;2023-01-19T17:17:03;2.26;85.13